RS-0003 weather

Aerodrom "13.Maj"
Zemun Polje, Beograd (city), Serbia

Public forecast

Using degrees Celsius for public forecast. Weather courtesy of forecast.io.

Closest aviation weather report (METAR) to Aerodrom "13.Maj"

Closest report is Belgrade Nikola Tesla Airport, 3.5 nm (6.5 km) S. Retrieved 2020/01/23 07:30 UTC (0 seconds ago):

LYBE 230730Z 24003KT 5000 BR BKN015 M01/M02 Q1037 NOSIG

Closest aviation forecast (TAF) to Aerodrom "13.Maj"

Closest forecast is Belgrade Nikola Tesla Airport, 3.5 nm (6.5 km) S. Retrieved 2020/01/23 06:21 UTC (60 minutes ago):

TAF LYBE 230500Z 2306/2406 28005KT 6000 BKN012 TX04/2313Z TNM06/2406Z BECMG 2307/2309 BKN025 BECMG 2320/2322 3000 BR TEMPO 2402/2406 1500